sensor_id;sensor_type;location;lat;lon;timestamp;P1;durP1;ratioP1;P2;durP2;ratioP2
40198;SDS011;25906;43.536;26.068;2023-09-19T06:25:54;5.50;;;4.28;;
40198;SDS011;25906;43.536;26.068;2023-09-19T06:28:40;5.55;;;4.18;;
40198;SDS011;25906;43.536;26.068;2023-09-19T06:31:26;6.68;;;3.67;;
40198;SDS011;25906;43.536;26.068;2023-09-19T06:34:11;6.30;;;4.18;;
40198;SDS011;25906;43.536;26.068;2023-09-19T06:37:00;5.90;;;3.97;;
40198;SDS011;25906;43.536;26.068;2023-09-19T06:39:46;4.82;;;3.50;;
40198;SDS011;25906;43.536;26.068;2023-09-19T06:42:34;5.60;;;3.85;;
40198;SDS011;25906;43.536;26.068;2023-09-19T06:45:22;4.88;;;3.97;;
40198;SDS011;25906;43.536;26.068;2023-09-19T06:50:58;5.22;;;3.90;;
40198;SDS011;25906;43.536;26.068;2023-09-19T06:53:46;4.20;;;3.53;;
40198;SDS011;25906;43.536;26.068;2023-09-19T06:56:31;7.05;;;3.97;;
40198;SDS011;25906;43.536;26.068;2023-09-19T06:59:17;6.03;;;3.50;;
40198;SDS011;25906;43.536;26.068;2023-09-19T07:02:03;4.15;;;3.72;;
40198;SDS011;25906;43.536;26.068;2023-09-19T07:04:51;6.75;;;3.65;;
40198;SDS011;25906;43.536;26.068;2023-09-19T07:07:36;6.43;;;3.75;;
40198;SDS011;25906;43.536;26.068;2023-09-19T07:10:22;4.45;;;3.33;;
40198;SDS011;25906;43.536;26.068;2023-09-19T07:13:09;4.32;;;3.33;;
40198;SDS011;25906;43.536;26.068;2023-09-19T07:15:55;4.82;;;3.40;;
40198;SDS011;25906;43.536;26.068;2023-09-19T07:18:44;4.28;;;3.20;;
40198;SDS011;25906;43.536;26.068;2023-09-19T07:21:30;3.85;;;3.13;;
40198;SDS011;25906;43.536;26.068;2023-09-19T07:24:17;5.13;;;3.10;;
40198;SDS011;25906;43.536;26.068;2023-09-19T07:27:03;9.77;;;3.40;;
40198;SDS011;25906;43.536;26.068;2023-09-19T07:29:50;7.40;;;3.08;;
40198;SDS011;25906;43.536;26.068;2023-09-19T07:32:36;3.47;;;3.15;;
40198;SDS011;25906;43.536;26.068;2023-09-19T07:35:21;4.97;;;3.35;;
40198;SDS011;25906;43.536;26.068;2023-09-19T07:38:07;5.55;;;3.17;;
40198;SDS011;25906;43.536;26.068;2023-09-19T07:40:53;10.43;;;2.97;;
40198;SDS011;25906;43.536;26.068;2023-09-19T07:43:44;3.92;;;3.50;;
40198;SDS011;25906;43.536;26.068;2023-09-19T07:46:30;8.13;;;3.03;;
40198;SDS011;25906;43.536;26.068;2023-09-19T07:54:48;4.65;;;3.03;;
40198;SDS011;25906;43.536;26.068;2023-09-19T07:57:35;7.35;;;3.20;;
40198;SDS011;25906;43.536;26.068;2023-09-19T08:00:21;8.75;;;3.30;;
40198;SDS011;25906;43.536;26.068;2023-09-19T08:03:06;4.38;;;2.92;;
40198;SDS011;25906;43.536;26.068;2023-09-19T08:05:55;4.47;;;3.20;;
40198;SDS011;25906;43.536;26.068;2023-09-19T08:08:42;3.05;;;2.47;;
40198;SDS011;25906;43.536;26.068;2023-09-19T08:11:28;4.22;;;2.75;;
40198;SDS011;25906;43.536;26.068;2023-09-19T08:14:16;4.07;;;3.08;;
40198;SDS011;25906;43.536;26.068;2023-09-19T08:17:01;4.50;;;3.10;;
40198;SDS011;25906;43.536;26.068;2023-09-19T08:19:47;3.28;;;2.75;;
40198;SDS011;25906;43.536;26.068;2023-09-19T08:22:34;7.22;;;3.08;;
40198;SDS011;25906;43.536;26.068;2023-09-19T08:25:20;3.38;;;2.70;;
40198;SDS011;25906;43.536;26.068;2023-09-19T08:28:06;5.53;;;2.88;;
40198;SDS011;25906;43.536;26.068;2023-09-19T08:30:53;4.70;;;2.75;;
40198;SDS011;25906;43.536;26.068;2023-09-19T08:33:39;3.65;;;2.63;;
40198;SDS011;25906;43.536;26.068;2023-09-19T08:36:25;5.32;;;2.50;;
40198;SDS011;25906;43.536;26.068;2023-09-19T08:39:11;3.85;;;2.83;;
40198;SDS011;25906;43.536;26.068;2023-09-19T08:42:00;4.18;;;2.80;;
40198;SDS011;25906;43.536;26.068;2023-09-19T08:44:46;6.47;;;2.35;;
40198;SDS011;25906;43.536;26.068;2023-09-19T08:47:33;4.35;;;2.10;;
40198;SDS011;25906;43.536;26.068;2023-09-19T08:50:28;5.22;;;2.60;;
40198;SDS011;25906;43.536;26.068;2023-09-19T08:53:19;8.82;;;3.50;;
40198;SDS011;25906;43.536;26.068;2023-09-19T08:56:12;7.10;;;2.47;;
40198;SDS011;25906;43.536;26.068;2023-09-19T09:01:48;4.22;;;2.63;;
40198;SDS011;25906;43.536;26.068;2023-09-19T09:04:36;3.80;;;2.78;;
40198;SDS011;25906;43.536;26.068;2023-09-19T09:07:23;5.10;;;2.80;;
40198;SDS011;25906;43.536;26.068;2023-09-19T09:12:55;7.20;;;2.78;;
40198;SDS011;25906;43.536;26.068;2023-09-19T09:15:40;5.88;;;2.70;;
40198;SDS011;25906;43.536;26.068;2023-09-19T09:18:27;4.10;;;2.75;;
40198;SDS011;25906;43.536;26.068;2023-09-19T09:21:14;5.55;;;3.58;;
40198;SDS011;25906;43.536;26.068;2023-09-19T09:27:15;4.20;;;3.08;;
40198;SDS011;25906;43.536;26.068;2023-09-19T09:30:02;7.88;;;2.90;;
40198;SDS011;25906;43.536;26.068;2023-09-19T09:32:48;3.38;;;2.63;;
40198;SDS011;25906;43.536;26.068;2023-09-19T09:35:57;2.95;;;2.60;;
40198;SDS011;25906;43.536;26.068;2023-09-19T09:38:47;4.70;;;2.60;;
40198;SDS011;25906;43.536;26.068;2023-09-19T09:41:40;3.45;;;2.40;;
40198;SDS011;25906;43.536;26.068;2023-09-19T09:44:25;3.92;;;2.88;;
40198;SDS011;25906;43.536;26.068;2023-09-19T09:47:12;5.60;;;2.60;;
40198;SDS011;25906;43.536;26.068;2023-09-19T09:50:14;3.30;;;2.42;;
40198;SDS011;25906;43.536;26.068;2023-09-19T09:53:02;9.27;;;5.05;;
40198;SDS011;25906;43.536;26.068;2023-09-19T09:55:59;3.45;;;2.50;;
40198;SDS011;25906;43.536;26.068;2023-09-19T09:58:51;3.50;;;2.67;;
40198;SDS011;25906;43.536;26.068;2023-09-19T10:01:47;6.07;;;3.33;;
40198;SDS011;25906;43.536;26.068;2023-09-19T10:04:34;15.05;;;4.97;;
40198;SDS011;25906;43.536;26.068;2023-09-19T10:07:30;6.82;;;2.42;;
40198;SDS011;25906;43.536;26.068;2023-09-19T10:10:42;2.50;;;2.30;;
40198;SDS011;25906;43.536;26.068;2023-09-19T10:13:28;4.80;;;2.08;;
40198;SDS011;25906;43.536;26.068;2023-09-19T10:16:16;4.35;;;2.20;;
40198;SDS011;25906;43.536;26.068;2023-09-19T10:19:04;4.63;;;2.10;;
40198;SDS011;25906;43.536;26.068;2023-09-19T10:21:54;2.50;;;1.98;;
40198;SDS011;25906;43.536;26.068;2023-09-19T10:24:43;3.42;;;2.40;;
40198;SDS011;25906;43.536;26.068;2023-09-19T10:27:30;4.30;;;2.10;;
40198;SDS011;25906;43.536;26.068;2023-09-19T10:30:22;4.32;;;1.98;;
40198;SDS011;25906;43.536;26.068;2023-09-19T10:33:09;3.42;;;2.15;;
40198;SDS011;25906;43.536;26.068;2023-09-19T10:38:44;2.00;;;1.80;;
40198;SDS011;25906;43.536;26.068;2023-09-19T10:41:31;5.90;;;2.20;;
40198;SDS011;25906;43.536;26.068;2023-09-19T10:44:28;5.65;;;2.70;;
40198;SDS011;25906;43.536;26.068;2023-09-19T10:47:17;4.95;;;1.75;;
40198;SDS011;25906;43.536;26.068;2023-09-19T10:50:05;6.25;;;2.50;;
40198;SDS011;25906;43.536;26.068;2023-09-19T10:52:51;2.20;;;2.00;;
40198;SDS011;25906;43.536;26.068;2023-09-19T10:55:50;3.45;;;2.22;;
40198;SDS011;25906;43.536;26.068;2023-09-19T10:58:39;3.30;;;2.05;;
40198;SDS011;25906;43.536;26.068;2023-09-19T11:01:40;4.47;;;2.58;;
40198;SDS011;25906;43.536;26.068;2023-09-19T11:04:30;6.30;;;2.20;;
40198;SDS011;25906;43.536;26.068;2023-09-19T11:07:17;3.55;;;2.00;;
40198;SDS011;25906;43.536;26.068;2023-09-19T11:12:49;2.97;;;1.80;;
40198;SDS011;25906;43.536;26.068;2023-09-19T11:27:11;4.00;;;2.13;;
40198;SDS011;25906;43.536;26.068;2023-09-19T11:30:25;3.55;;;2.05;;
40198;SDS011;25906;43.536;26.068;2023-09-19T11:33:30;2.55;;;1.98;;
40198;SDS011;25906;43.536;26.068;2023-09-19T11:39:24;5.40;;;1.98;;
40198;SDS011;25906;43.536;26.068;2023-09-19T11:42:45;3.60;;;2.13;;
40198;SDS011;25906;43.536;26.068;2023-09-19T11:48:44;4.30;;;2.20;;
40198;SDS011;25906;43.536;26.068;2023-09-19T11:51:37;2.50;;;2.30;;
40198;SDS011;25906;43.536;26.068;2023-09-19T11:54:26;5.55;;;2.53;;
40198;SDS011;25906;43.536;26.068;2023-09-19T11:57:20;5.30;;;2.40;;
40198;SDS011;25906;43.536;26.068;2023-09-19T12:00:06;2.72;;;1.75;;
40198;SDS011;25906;43.536;26.068;2023-09-19T12:02:55;2.40;;;1.90;;
40198;SDS011;25906;43.536;26.068;2023-09-19T12:05:47;7.50;;;2.10;;
40198;SDS011;25906;43.536;26.068;2023-09-19T12:08:32;3.47;;;2.53;;
40198;SDS011;25906;43.536;26.068;2023-09-19T12:11:19;3.08;;;2.30;;
40198;SDS011;25906;43.536;26.068;2023-09-19T12:14:05;2.85;;;2.47;;
40198;SDS011;25906;43.536;26.068;2023-09-19T12:16:57;5.10;;;2.38;;
40198;SDS011;25906;43.536;26.068;2023-09-19T12:19:52;5.22;;;2.30;;
40198;SDS011;25906;43.536;26.068;2023-09-19T12:25:40;2.20;;;2.00;;
40198;SDS011;25906;43.536;26.068;2023-09-19T12:28:28;3.63;;;2.40;;
40198;SDS011;25906;43.536;26.068;2023-09-19T12:31:15;2.65;;;2.17;;
40198;SDS011;25906;43.536;26.068;2023-09-19T12:34:03;3.08;;;2.20;;
40198;SDS011;25906;43.536;26.068;2023-09-19T12:36:49;8.35;;;2.63;;
40198;SDS011;25906;43.536;26.068;2023-09-19T12:40:08;6.15;;;2.20;;
40198;SDS011;25906;43.536;26.068;2023-09-19T12:43:02;3.13;;;2.30;;
40198;SDS011;25906;43.536;26.068;2023-09-19T12:45:49;11.07;;;2.30;;
40198;SDS011;25906;43.536;26.068;2023-09-19T12:48:35;5.63;;;2.28;;
40198;SDS011;25906;43.536;26.068;2023-09-19T12:51:22;2.83;;;1.95;;
40198;SDS011;25906;43.536;26.068;2023-09-19T12:54:10;3.10;;;2.25;;
40198;SDS011;25906;43.536;26.068;2023-09-19T12:56:56;3.03;;;2.10;;
40198;SDS011;25906;43.536;26.068;2023-09-19T12:59:43;3.60;;;2.10;;
40198;SDS011;25906;43.536;26.068;2023-09-19T13:02:28;3.28;;;2.45;;
40198;SDS011;25906;43.536;26.068;2023-09-19T13:08:04;3.15;;;1.92;;
40198;SDS011;25906;43.536;26.068;2023-09-19T13:11:06;3.00;;;2.13;;
40198;SDS011;25906;43.536;26.068;2023-09-19T13:17:13;3.47;;;2.25;;
40198;SDS011;25906;43.536;26.068;2023-09-19T13:20:02;5.38;;;2.22;;
40198;SDS011;25906;43.536;26.068;2023-09-19T13:22:48;3.97;;;2.15;;
40198;SDS011;25906;43.536;26.068;2023-09-19T13:25:39;2.70;;;2.10;;
40198;SDS011;25906;43.536;26.068;2023-09-19T13:28:25;5.40;;;2.35;;
40198;SDS011;25906;43.536;26.068;2023-09-19T13:31:11;2.58;;;1.80;;
40198;SDS011;25906;43.536;26.068;2023-09-19T13:33:57;3.60;;;2.20;;
40198;SDS011;25906;43.536;26.068;2023-09-19T13:36:42;3.40;;;2.15;;
40198;SDS011;25906;43.536;26.068;2023-09-19T13:39:28;2.67;;;2.22;;
40198;SDS011;25906;43.536;26.068;2023-09-19T13:42:14;2.72;;;1.98;;
40198;SDS011;25906;43.536;26.068;2023-09-19T13:45:04;3.38;;;2.42;;
40198;SDS011;25906;43.536;26.068;2023-09-19T13:47:50;4.30;;;2.10;;
40198;SDS011;25906;43.536;26.068;2023-09-19T13:50:35;2.92;;;2.30;;
40198;SDS011;25906;43.536;26.068;2023-09-19T13:53:21;4.80;;;2.10;;
40198;SDS011;25906;43.536;26.068;2023-09-19T13:56:07;2.95;;;2.03;;
40198;SDS011;25906;43.536;26.068;2023-09-19T13:58:53;3.35;;;2.17;;
40198;SDS011;25906;43.536;26.068;2023-09-19T14:01:39;6.22;;;2.20;;
40198;SDS011;25906;43.536;26.068;2023-09-19T14:04:25;3.58;;;2.60;;
40198;SDS011;25906;43.536;26.068;2023-09-19T14:09:59;6.55;;;2.22;;
40198;SDS011;25906;43.536;26.068;2023-09-19T14:12:45;3.97;;;2.33;;
40198;SDS011;25906;43.536;26.068;2023-09-19T14:15:30;3.10;;;2.15;;
40198;SDS011;25906;43.536;26.068;2023-09-19T14:18:17;3.65;;;2.42;;
40198;SDS011;25906;43.536;26.068;2023-09-19T14:21:06;3.72;;;2.35;;
40198;SDS011;25906;43.536;26.068;2023-09-19T14:23:56;5.88;;;2.10;;
40198;SDS011;25906;43.536;26.068;2023-09-19T14:26:41;5.65;;;2.42;;
40198;SDS011;25906;43.536;26.068;2023-09-19T14:29:26;4.93;;;2.40;;
40198;SDS011;25906;43.536;26.068;2023-09-19T14:32:13;5.18;;;2.30;;
40198;SDS011;25906;43.536;26.068;2023-09-19T14:34:58;3.20;;;2.22;;
40198;SDS011;25906;43.536;26.068;2023-09-19T14:37:44;4.50;;;2.53;;
40198;SDS011;25906;43.536;26.068;2023-09-19T14:40:30;3.70;;;2.42;;
40198;SDS011;25906;43.536;26.068;2023-09-19T14:46:04;4.25;;;2.25;;
40198;SDS011;25906;43.536;26.068;2023-09-19T14:48:52;2.58;;;2.03;;
40198;SDS011;25906;43.536;26.068;2023-09-19T14:51:38;2.00;;;1.70;;
40198;SDS011;25906;43.536;26.068;2023-09-19T14:54:29;6.57;;;2.60;;
40198;SDS011;25906;43.536;26.068;2023-09-19T14:57:15;3.53;;;2.42;;
40198;SDS011;25906;43.536;26.068;2023-09-19T15:00:01;4.63;;;2.28;;
40198;SDS011;25906;43.536;26.068;2023-09-19T15:02:50;4.47;;;2.25;;
40198;SDS011;25906;43.536;26.068;2023-09-19T15:08:21;2.72;;;2.30;;
40198;SDS011;25906;43.536;26.068;2023-09-19T15:11:08;6.30;;;2.60;;
40198;SDS011;25906;43.536;26.068;2023-09-19T15:16:39;5.32;;;2.45;;
40198;SDS011;25906;43.536;26.068;2023-09-19T15:19:25;6.38;;;1.98;;
40198;SDS011;25906;43.536;26.068;2023-09-19T15:22:10;2.90;;;2.08;;
40198;SDS011;25906;43.536;26.068;2023-09-19T15:24:57;2.63;;;2.00;;
40198;SDS011;25906;43.536;26.068;2023-09-19T15:27:43;3.65;;;2.00;;
40198;SDS011;25906;43.536;26.068;2023-09-19T15:30:30;2.70;;;2.15;;
40198;SDS011;25906;43.536;26.068;2023-09-19T15:33:15;6.40;;;2.30;;
40198;SDS011;25906;43.536;26.068;2023-09-19T15:41:56;3.45;;;2.13;;
40198;SDS011;25906;43.536;26.068;2023-09-19T15:44:41;8.07;;;2.30;;
40198;SDS011;25906;43.536;26.068;2023-09-19T15:47:29;5.32;;;2.13;;
40198;SDS011;25906;43.536;26.068;2023-09-19T15:50:15;2.80;;;2.13;;
40198;SDS011;25906;43.536;26.068;2023-09-19T15:53:02;2.85;;;2.45;;
40198;SDS011;25906;43.536;26.068;2023-09-19T15:55:47;5.00;;;2.30;;
40198;SDS011;25906;43.536;26.068;2023-09-19T15:58:33;6.38;;;2.58;;
40198;SDS011;25906;43.536;26.068;2023-09-19T16:01:19;7.45;;;2.50;;
40198;SDS011;25906;43.536;26.068;2023-09-19T16:04:05;4.78;;;2.60;;
40198;SDS011;25906;43.536;26.068;2023-09-19T16:06:50;3.42;;;2.30;;
40198;SDS011;25906;43.536;26.068;2023-09-19T16:09:36;6.82;;;2.60;;
40198;SDS011;25906;43.536;26.068;2023-09-19T16:12:22;5.35;;;2.45;;
40198;SDS011;25906;43.536;26.068;2023-09-19T16:15:08;12.82;;;2.55;;
40198;SDS011;25906;43.536;26.068;2023-09-19T16:17:56;7.40;;;2.38;;
40198;SDS011;25906;43.536;26.068;2023-09-19T16:20:41;10.32;;;2.50;;
40198;SDS011;25906;43.536;26.068;2023-09-19T16:23:27;2.95;;;2.38;;
40198;SDS011;25906;43.536;26.068;2023-09-19T16:26:12;5.55;;;2.30;;
40198;SDS011;25906;43.536;26.068;2023-09-19T16:28:58;6.93;;;2.30;;
40198;SDS011;25906;43.536;26.068;2023-09-19T16:31:47;4.70;;;2.45;;
40198;SDS011;25906;43.536;26.068;2023-09-19T16:34:32;6.10;;;2.35;;
40198;SDS011;25906;43.536;26.068;2023-09-19T16:37:18;8.35;;;2.30;;
40198;SDS011;25906;43.536;26.068;2023-09-19T16:40:04;6.75;;;2.90;;
40198;SDS011;25906;43.536;26.068;2023-09-19T16:42:53;8.75;;;3.33;;
40198;SDS011;25906;43.536;26.068;2023-09-19T16:45:39;3.53;;;2.25;;
40198;SDS011;25906;43.536;26.068;2023-09-19T16:48:25;4.80;;;2.67;;
40198;SDS011;25906;43.536;26.068;2023-09-19T16:51:12;6.57;;;2.45;;
40198;SDS011;25906;43.536;26.068;2023-09-19T16:53:58;3.85;;;2.20;;
40198;SDS011;25906;43.536;26.068;2023-09-19T16:56:44;4.85;;;2.85;;
40198;SDS011;25906;43.536;26.068;2023-09-19T16:59:29;5.97;;;2.88;;
40198;SDS011;25906;43.536;26.068;2023-09-19T17:02:15;3.03;;;2.45;;
40198;SDS011;25906;43.536;26.068;2023-09-19T17:05:01;11.45;;;2.95;;
40198;SDS011;25906;43.536;26.068;2023-09-19T17:07:46;4.70;;;2.70;;
40198;SDS011;25906;43.536;26.068;2023-09-19T17:10:33;3.78;;;3.00;;
40198;SDS011;25906;43.536;26.068;2023-09-19T17:13:19;9.10;;;3.42;;
40198;SDS011;25906;43.536;26.068;2023-09-19T17:16:06;5.88;;;3.20;;
40198;SDS011;25906;43.536;26.068;2023-09-19T17:18:53;10.20;;;2.58;;
40198;SDS011;25906;43.536;26.068;2023-09-19T17:21:40;3.67;;;2.60;;
40198;SDS011;25906;43.536;26.068;2023-09-19T17:27:11;9.65;;;2.55;;
40198;SDS011;25906;43.536;26.068;2023-09-19T17:29:57;4.88;;;2.72;;
40198;SDS011;25906;43.536;26.068;2023-09-19T17:32:43;6.28;;;2.88;;
40198;SDS011;25906;43.536;26.068;2023-09-19T17:35:29;4.13;;;2.53;;
40198;SDS011;25906;43.536;26.068;2023-09-19T17:41:00;3.85;;;2.50;;
40198;SDS011;25906;43.536;26.068;2023-09-19T17:43:55;6.95;;;3.00;;
40198;SDS011;25906;43.536;26.068;2023-09-19T17:46:41;3.13;;;2.67;;
40198;SDS011;25906;43.536;26.068;2023-09-19T17:49:28;4.57;;;2.50;;
40198;SDS011;25906;43.536;26.068;2023-09-19T17:52:13;6.45;;;2.40;;
40198;SDS011;25906;43.536;26.068;2023-09-19T17:55:01;9.82;;;2.42;;
40198;SDS011;25906;43.536;26.068;2023-09-19T17:57:47;2.90;;;2.47;;
40198;SDS011;25906;43.536;26.068;2023-09-19T18:00:34;3.75;;;2.45;;
40198;SDS011;25906;43.536;26.068;2023-09-19T18:03:21;2.80;;;2.28;;
40198;SDS011;25906;43.536;26.068;2023-09-19T18:06:10;3.05;;;2.67;;
40198;SDS011;25906;43.536;26.068;2023-09-19T18:08:56;5.35;;;2.17;;
40198;SDS011;25906;43.536;26.068;2023-09-19T18:14:27;2.88;;;2.50;;
40198;SDS011;25906;43.536;26.068;2023-09-19T18:17:17;8.35;;;3.78;;
40198;SDS011;25906;43.536;26.068;2023-09-19T18:20:02;3.47;;;2.92;;
40198;SDS011;25906;43.536;26.068;2023-09-19T18:22:49;3.33;;;2.40;;
40198;SDS011;25906;43.536;26.068;2023-09-19T18:25:35;3.88;;;2.90;;
40198;SDS011;25906;43.536;26.068;2023-09-19T18:28:22;5.30;;;2.70;;
40198;SDS011;25906;43.536;26.068;2023-09-19T18:31:08;4.80;;;2.40;;
40198;SDS011;25906;43.536;26.068;2023-09-19T18:33:53;4.97;;;2.83;;
40198;SDS011;25906;43.536;26.068;2023-09-19T18:36:39;7.20;;;2.80;;
40198;SDS011;25906;43.536;26.068;2023-09-19T18:42:10;5.40;;;2.73;;
40198;SDS011;25906;43.536;26.068;2023-09-19T18:44:56;3.38;;;2.35;;
40198;SDS011;25906;43.536;26.068;2023-09-19T18:47:43;3.10;;;2.70;;
40198;SDS011;25906;43.536;26.068;2023-09-19T18:50:29;4.35;;;2.58;;
40198;SDS011;25906;43.536;26.068;2023-09-19T18:53:15;4.72;;;2.85;;
40198;SDS011;25906;43.536;26.068;2023-09-19T18:58:50;3.55;;;2.80;;
40198;SDS011;25906;43.536;26.068;2023-09-19T19:01:35;3.53;;;2.60;;
40198;SDS011;25906;43.536;26.068;2023-09-19T19:07:09;4.47;;;2.60;;
40198;SDS011;25906;43.536;26.068;2023-09-19T19:10:01;7.55;;;2.70;;
40198;SDS011;25906;43.536;26.068;2023-09-19T19:12:48;2.95;;;2.63;;
40198;SDS011;25906;43.536;26.068;2023-09-19T19:15:33;6.00;;;2.72;;
40198;SDS011;25906;43.536;26.068;2023-09-19T19:18:19;4.93;;;2.65;;
40198;SDS011;25906;43.536;26.068;2023-09-19T19:21:06;6.28;;;3.05;;
40198;SDS011;25906;43.536;26.068;2023-09-19T19:23:54;3.50;;;2.75;;
40198;SDS011;25906;43.536;26.068;2023-09-19T19:26:40;3.08;;;2.78;;
40198;SDS011;25906;43.536;26.068;2023-09-19T19:34:58;6.18;;;2.60;;
40198;SDS011;25906;43.536;26.068;2023-09-19T19:37:44;4.78;;;3.03;;
40198;SDS011;25906;43.536;26.068;2023-09-19T19:40:30;4.10;;;2.80;;
40198;SDS011;25906;43.536;26.068;2023-09-19T19:43:15;5.38;;;3.13;;
40198;SDS011;25906;43.536;26.068;2023-09-19T19:48:50;3.88;;;2.83;;
40198;SDS011;25906;43.536;26.068;2023-09-19T19:51:37;3.45;;;2.90;;
40198;SDS011;25906;43.536;26.068;2023-09-19T19:54:23;5.53;;;3.00;;
40198;SDS011;25906;43.536;26.068;2023-09-19T19:57:09;4.40;;;3.20;;
40198;SDS011;25906;43.536;26.068;2023-09-19T19:59:55;10.15;;;3.20;;
40198;SDS011;25906;43.536;26.068;2023-09-19T20:02:43;5.32;;;2.80;;
40198;SDS011;25906;43.536;26.068;2023-09-19T20:05:29;3.40;;;2.83;;
40198;SDS011;25906;43.536;26.068;2023-09-19T20:08:14;5.03;;;3.03;;
40198;SDS011;25906;43.536;26.068;2023-09-19T20:11:00;4.07;;;3.15;;
40198;SDS011;25906;43.536;26.068;2023-09-19T20:13:47;5.65;;;2.97;;
40198;SDS011;25906;43.536;26.068;2023-09-19T20:16:33;8.15;;;3.00;;
40198;SDS011;25906;43.536;26.068;2023-09-19T20:19:21;3.45;;;2.78;;
40198;SDS011;25906;43.536;26.068;2023-09-19T20:22:07;3.53;;;2.90;;
40198;SDS011;25906;43.536;26.068;2023-09-19T20:24:55;3.83;;;2.75;;
40198;SDS011;25906;43.536;26.068;2023-09-19T20:27:41;6.40;;;2.95;;
40198;SDS011;25906;43.536;26.068;2023-09-19T20:30:27;3.67;;;2.83;;
40198;SDS011;25906;43.536;26.068;2023-09-19T20:33:13;3.97;;;2.85;;
40198;SDS011;25906;43.536;26.068;2023-09-19T20:35:59;4.30;;;3.20;;
40198;SDS011;25906;43.536;26.068;2023-09-19T20:38:45;4.70;;;3.20;;
40198;SDS011;25906;43.536;26.068;2023-09-19T20:41:31;6.03;;;3.03;;
40198;SDS011;25906;43.536;26.068;2023-09-19T20:44:17;3.57;;;2.80;;
40198;SDS011;25906;43.536;26.068;2023-09-19T20:47:03;6.55;;;2.80;;
40198;SDS011;25906;43.536;26.068;2023-09-19T20:49:50;4.45;;;3.00;;
40198;SDS011;25906;43.536;26.068;2023-09-19T20:52:35;5.07;;;3.30;;
40198;SDS011;25906;43.536;26.068;2023-09-19T20:55:22;8.82;;;3.28;;
40198;SDS011;25906;43.536;26.068;2023-09-19T20:58:09;4.70;;;3.30;;
40198;SDS011;25906;43.536;26.068;2023-09-19T21:00:54;3.58;;;3.22;;
40198;SDS011;25906;43.536;26.068;2023-09-19T21:03:45;5.88;;;3.10;;
40198;SDS011;25906;43.536;26.068;2023-09-19T21:06:30;7.28;;;3.63;;
40198;SDS011;25906;43.536;26.068;2023-09-19T21:09:16;6.05;;;3.50;;
40198;SDS011;25906;43.536;26.068;2023-09-19T21:14:48;5.05;;;3.53;;
40198;SDS011;25906;43.536;26.068;2023-09-19T21:17:33;6.22;;;3.47;;
40198;SDS011;25906;43.536;26.068;2023-09-19T21:20:27;6.97;;;3.47;;
40198;SDS011;25906;43.536;26.068;2023-09-19T21:23:12;3.75;;;3.08;;
40198;SDS011;25906;43.536;26.068;2023-09-19T21:25:58;4.60;;;3.20;;
40198;SDS011;25906;43.536;26.068;2023-09-19T21:28:45;7.35;;;3.65;;
40198;SDS011;25906;43.536;26.068;2023-09-19T21:31:31;3.40;;;2.97;;
40198;SDS011;25906;43.536;26.068;2023-09-19T21:34:17;4.45;;;3.17;;
40198;SDS011;25906;43.536;26.068;2023-09-19T21:37:03;5.65;;;3.55;;
40198;SDS011;25906;43.536;26.068;2023-09-19T21:39:49;4.93;;;3.40;;
40198;SDS011;25906;43.536;26.068;2023-09-19T21:42:34;4.03;;;3.15;;
40198;SDS011;25906;43.536;26.068;2023-09-19T21:45:20;10.23;;;3.47;;
40198;SDS011;25906;43.536;26.068;2023-09-19T21:48:05;5.63;;;3.70;;
40198;SDS011;25906;43.536;26.068;2023-09-19T21:50:53;9.07;;;4.53;;
40198;SDS011;25906;43.536;26.068;2023-09-19T21:53:40;6.70;;;3.88;;
40198;SDS011;25906;43.536;26.068;2023-09-19T21:56:26;7.95;;;3.92;;
40198;SDS011;25906;43.536;26.068;2023-09-19T21:59:12;5.07;;;3.92;;
40198;SDS011;25906;43.536;26.068;2023-09-19T22:01:59;6.75;;;3.60;;
40198;SDS011;25906;43.536;26.068;2023-09-19T22:04:47;4.65;;;3.55;;
40198;SDS011;25906;43.536;26.068;2023-09-19T22:07:32;5.97;;;3.70;;
40198;SDS011;25906;43.536;26.068;2023-09-19T22:10:18;7.60;;;3.80;;
40198;SDS011;25906;43.536;26.068;2023-09-19T22:13:03;5.55;;;3.60;;
40198;SDS011;25906;43.536;26.068;2023-09-19T22:15:49;5.20;;;3.97;;
40198;SDS011;25906;43.536;26.068;2023-09-19T22:18:39;6.35;;;3.80;;
40198;SDS011;25906;43.536;26.068;2023-09-19T22:21:25;6.07;;;3.78;;
40198;SDS011;25906;43.536;26.068;2023-09-19T22:24:22;6.30;;;3.90;;
40198;SDS011;25906;43.536;26.068;2023-09-19T22:27:07;5.82;;;3.92;;
40198;SDS011;25906;43.536;26.068;2023-09-19T22:29:57;10.68;;;4.20;;
40198;SDS011;25906;43.536;26.068;2023-09-19T22:32:46;7.95;;;3.97;;
40198;SDS011;25906;43.536;26.068;2023-09-19T22:35:32;6.40;;;3.50;;
40198;SDS011;25906;43.536;26.068;2023-09-19T22:38:18;4.13;;;3.35;;
40198;SDS011;25906;43.536;26.068;2023-09-19T22:41:04;5.22;;;3.58;;
40198;SDS011;25906;43.536;26.068;2023-09-19T22:44:01;7.38;;;3.55;;
40198;SDS011;25906;43.536;26.068;2023-09-19T22:46:46;7.20;;;3.65;;
40198;SDS011;25906;43.536;26.068;2023-09-19T22:49:33;5.30;;;4.10;;
40198;SDS011;25906;43.536;26.068;2023-09-19T22:52:19;5.95;;;4.00;;
40198;SDS011;25906;43.536;26.068;2023-09-19T22:55:06;4.63;;;3.67;;
40198;SDS011;25906;43.536;26.068;2023-09-19T22:57:53;5.45;;;4.00;;
40198;SDS011;25906;43.536;26.068;2023-09-19T23:00:40;6.13;;;4.07;;
40198;SDS011;25906;43.536;26.068;2023-09-19T23:03:26;6.75;;;3.90;;
40198;SDS011;25906;43.536;26.068;2023-09-19T23:06:20;5.38;;;4.00;;
40198;SDS011;25906;43.536;26.068;2023-09-19T23:09:09;6.93;;;4.07;;
40198;SDS011;25906;43.536;26.068;2023-09-19T23:12:02;6.50;;;3.50;;
40198;SDS011;25906;43.536;26.068;2023-09-19T23:14:51;4.53;;;3.60;;
40198;SDS011;25906;43.536;26.068;2023-09-19T23:17:37;6.22;;;3.92;;
40198;SDS011;25906;43.536;26.068;2023-09-19T23:20:27;7.55;;;4.00;;
40198;SDS011;25906;43.536;26.068;2023-09-19T23:23:14;6.75;;;3.67;;
40198;SDS011;25906;43.536;26.068;2023-09-19T23:26:02;6.43;;;3.90;;
40198;SDS011;25906;43.536;26.068;2023-09-19T23:28:51;5.10;;;3.60;;
40198;SDS011;25906;43.536;26.068;2023-09-19T23:31:37;6.07;;;3.20;;
40198;SDS011;25906;43.536;26.068;2023-09-19T23:34:25;5.03;;;3.40;;
40198;SDS011;25906;43.536;26.068;2023-09-19T23:37:12;5.70;;;3.72;;
40198;SDS011;25906;43.536;26.068;2023-09-19T23:39:59;7.75;;;4.20;;
40198;SDS011;25906;43.536;26.068;2023-09-19T23:42:46;7.47;;;3.55;;
40198;SDS011;25906;43.536;26.068;2023-09-19T23:45:33;7.30;;;4.07;;
40198;SDS011;25906;43.536;26.068;2023-09-19T23:48:22;7.22;;;3.63;;
40198;SDS011;25906;43.536;26.068;2023-09-19T23:51:09;6.03;;;3.40;;
40198;SDS011;25906;43.536;26.068;2023-09-19T23:53:55;5.40;;;4.10;;
40198;SDS011;25906;43.536;26.068;2023-09-19T23:56:41;7.50;;;3.70;;
40198;SDS011;25906;43.536;26.068;2023-09-19T23:59:30;5.18;;;3.50;;
